Time;durP1;ratioP1;P1;durP2;ratioP2;P2;SDS_P1;SDS_P2;PMS_P1;PMS_P2;Temp;Humidity;BMP_temperature;BMP_pressure;BME280_temperature;BME280_humidity;BME280_pressure;Samples;Min_cycle;Max_cycle;Signal;HPM_P1;HPM_P2
2022/05/22 00:00:28;;;;;;;5.30;2.17;;;;;;;;;;4993291;28;20213;-72
2022/05/22 00:02:56;;;;;;;4.70;2.00;;;;;;;;;;4991635;28;20660;-73
2022/05/22 00:05:26;;;;;;;5.30;2.50;;;;;;;;;;4991544;28;20216;-72
2022/05/22 00:07:55;;;;;;;4.47;2.33;;;;;;;;;;4993757;28;20217;-73
2022/05/22 00:10:23;;;;;;;5.70;2.20;;;;;;;;;;4993965;28;20212;-73
2022/05/22 00:12:51;;;;;;;5.67;1.97;;;;;;;;;;4992190;28;20216;-74
2022/05/22 00:15:20;;;;;;;7.57;2.53;;;;;;;;;;4992297;28;20213;-72
2022/05/22 00:17:48;;;;;;;4.87;2.10;;;;;;;;;;4992488;28;20229;-73
2022/05/22 00:20:17;;;;;;;5.13;2.23;;;;;;;;;;4994967;28;20356;-72
2022/05/22 00:22:46;;;;;;;4.90;2.13;;;;;;;;;;4993704;28;20213;-72
2022/05/22 00:25:15;;;;;;;7.37;2.63;;;;;;;;;;5042587;23;20287;-72
2022/05/22 00:27:44;;;;;;;5.00;2.33;;;;;;;;;;5006818;28;20233;-72
2022/05/22 00:30:13;;;;;;;5.13;2.67;;;;;;;;;;4995602;28;20614;-73
2022/05/22 00:32:42;;;;;;;4.63;2.17;;;;;;;;;;4995604;28;20550;-72
2022/05/22 00:35:11;;;;;;;5.73;2.37;;;;;;;;;;4994239;28;20675;-73
2022/05/22 00:37:39;;;;;;;4.67;2.43;;;;;;;;;;4994001;28;20221;-72
2022/05/22 00:40:10;;;;;;;5.37;2.00;;;;;;;;;;4994791;28;20695;-73
2022/05/22 00:42:42;;;;;;;3.63;2.10;;;;;;;;;;4994750;28;20267;-72
2022/05/22 00:45:11;;;;;;;5.60;2.53;;;;;;;;;;4993918;28;20198;-73
2022/05/22 00:47:39;;;;;;;8.80;2.87;;;;;;;;;;4995464;28;20229;-73
2022/05/22 00:50:08;;;;;;;6.30;2.60;;;;;;;;;;4995064;28;20283;-73
2022/05/22 00:52:40;;;;;;;4.03;2.20;;;;;;;;;;4995236;28;20271;-73
2022/05/22 00:55:14;;;;;;;4.97;2.60;;;;;;;;;;4993897;28;20283;-73
2022/05/22 00:57:44;;;;;;;5.70;2.93;;;;;;;;;;4995593;28;20695;-72
2022/05/22 01:00:14;;;;;;;7.57;2.50;;;;;;;;;;4993883;28;20626;-73
2022/05/22 01:05:29;;;;;;;6.10;2.50;;;;;;;;;;4993150;28;20208;-73
2022/05/22 01:07:58;;;;;;;4.77;2.50;;;;;;;;;;4995369;28;20225;-73
2022/05/22 01:10:31;;;;;;;9.63;2.53;;;;;;;;;;4993999;28;20205;-73
2022/05/22 01:13:00;;;;;;;5.93;2.67;;;;;;;;;;4995534;28;20601;-73
2022/05/22 01:15:29;;;;;;;3.83;2.33;;;;;;;;;;4995298;28;20660;-73
2022/05/22 01:17:57;;;;;;;5.00;2.60;;;;;;;;;;4992702;28;20221;-73
2022/05/22 01:20:26;;;;;;;3.50;2.13;;;;;;;;;;4994601;28;20229;-73
2022/05/22 01:22:55;;;;;;;6.90;2.27;;;;;;;;;;4992731;28;20201;-73
2022/05/22 01:25:24;;;;;;;5.93;2.53;;;;;;;;;;4989089;28;20213;-74
2022/05/22 01:27:53;;;;;;;7.33;2.70;;;;;;;;;;5002612;28;20225;-72
2022/05/22 01:30:22;;;;;;;7.97;3.17;;;;;;;;;;4995917;28;20201;-73
2022/05/22 01:32:51;;;;;;;4.80;2.57;;;;;;;;;;4997572;28;20641;-72
2022/05/22 01:35:21;;;;;;;7.23;2.83;;;;;;;;;;4993997;28;20217;-72
2022/05/22 01:37:50;;;;;;;6.40;2.57;;;;;;;;;;4994170;28;20229;-73
2022/05/22 01:40:21;;;;;;;7.27;2.80;;;;;;;;;;4994222;28;20233;-72
2022/05/22 01:42:49;;;;;;;3.77;2.57;;;;;;;;;;5056740;23;20265;-73
2022/05/22 01:45:20;;;;;;;6.37;2.50;;;;;;;;;;5033874;28;20211;-73
2022/05/22 01:47:50;;;;;;;8.77;2.80;;;;;;;;;;5024241;28;20232;-73
2022/05/22 01:50:19;;;;;;;5.87;2.93;;;;;;;;;;5014173;28;20614;-74
2022/05/22 01:52:47;;;;;;;5.23;2.53;;;;;;;;;;5010480;28;20205;-73
2022/05/22 01:55:16;;;;;;;4.90;2.80;;;;;;;;;;5012949;28;20200;-74
2022/05/22 01:57:46;;;;;;;3.53;2.67;;;;;;;;;;5011632;28;20286;-73
2022/05/22 02:00:16;;;;;;;5.97;2.83;;;;;;;;;;5014021;28;20224;-73
2022/05/22 02:02:44;;;;;;;5.40;2.80;;;;;;;;;;5012326;28;20205;-74
2022/05/22 02:05:13;;;;;;;5.03;2.50;;;;;;;;;;5014444;28;20208;-73
2022/05/22 02:10:28;;;;;;;5.00;2.83;;;;;;;;;;5003381;28;20655;-73
2022/05/22 02:12:58;;;;;;;4.47;2.33;;;;;;;;;;5011404;28;20694;-73
2022/05/22 02:15:26;;;;;;;5.27;3.13;;;;;;;;;;5012299;28;20205;-73
2022/05/22 02:17:55;;;;;;;4.97;2.63;;;;;;;;;;5013357;28;20232;-73
2022/05/22 02:20:24;;;;;;;5.67;3.27;;;;;;;;;;5004333;28;20228;-73
2022/05/22 02:22:53;;;;;;;4.60;2.87;;;;;;;;;;5012070;28;20258;-74
2022/05/22 02:25:22;;;;;;;5.47;2.97;;;;;;;;;;5012182;28;20204;-72
2022/05/22 02:27:51;;;;;;;3.97;3.17;;;;;;;;;;5012669;28;20224;-73
2022/05/22 02:30:23;;;;;;;5.10;3.13;;;;;;;;;;5012497;28;20652;-73
2022/05/22 02:32:51;;;;;;;5.50;3.10;;;;;;;;;;5011576;28;20204;-74
2022/05/22 02:35:20;;;;;;;4.70;3.20;;;;;;;;;;5011566;28;20616;-73
2022/05/22 02:37:50;;;;;;;6.57;3.20;;;;;;;;;;5012753;28;20231;-73
2022/05/22 02:40:20;;;;;;;7.00;2.90;;;;;;;;;;5011505;28;20297;-73
2022/05/22 02:42:49;;;;;;;4.80;3.20;;;;;;;;;;5010842;28;20267;-73
2022/05/22 02:45:19;;;;;;;9.60;3.63;;;;;;;;;;5010866;28;20581;-73
2022/05/22 02:47:49;;;;;;;5.53;3.13;;;;;;;;;;5013765;28;20283;-73
2022/05/22 02:50:19;;;;;;;6.30;3.23;;;;;;;;;;5011765;28;20205;-73
2022/05/22 02:52:47;;;;;;;4.87;3.27;;;;;;;;;;5012446;28;20212;-73
2022/05/22 02:55:16;;;;;;;7.60;3.60;;;;;;;;;;5011703;28;20327;-73
2022/05/22 02:57:45;;;;;;;5.37;3.37;;;;;;;;;;5012715;28;20270;-72
2022/05/22 03:00:21;;;;;;;7.77;3.23;;;;;;;;;;5011828;28;20299;-73
2022/05/22 03:06:39;;;;;;;8.50;3.70;;;;;;;;;;5011643;28;20690;-73
2022/05/22 03:09:08;;;;;;;7.57;3.30;;;;;;;;;;5011350;28;20235;-73
2022/05/22 03:11:37;;;;;;;5.40;3.67;;;;;;;;;;5011463;28;20651;-73
2022/05/22 03:14:06;;;;;;;6.80;3.07;;;;;;;;;;5010033;28;20219;-73
2022/05/22 03:16:37;;;;;;;5.87;3.33;;;;;;;;;;5011907;28;20204;-73
2022/05/22 03:19:06;;;;;;;5.63;4.00;;;;;;;;;;5010697;28;20703;-72
2022/05/22 03:21:37;;;;;;;5.97;3.50;;;;;;;;;;5012844;28;20226;-73
2022/05/22 03:24:06;;;;;;;5.07;3.80;;;;;;;;;;5010276;28;20578;-72
2022/05/22 03:26:35;;;;;;;7.47;4.07;;;;;;;;;;5007785;28;20208;-73
2022/05/22 03:29:03;;;;;;;9.13;4.03;;;;;;;;;;5011582;28;20228;-73
2022/05/22 03:31:32;;;;;;;5.33;3.67;;;;;;;;;;4997095;28;20196;-73
2022/05/22 03:34:00;;;;;;;11.30;4.10;;;;;;;;;;5011599;28;20262;-73
2022/05/22 03:36:29;;;;;;;12.30;4.53;;;;;;;;;;5008148;28;20205;-73
2022/05/22 03:38:59;;;;;;;4.30;3.80;;;;;;;;;;5011459;28;20221;-73
2022/05/22 03:41:28;;;;;;;6.37;3.80;;;;;;;;;;5011917;28;20224;-73
2022/05/22 03:43:56;;;;;;;8.27;3.67;;;;;;;;;;5008997;28;20220;-73
2022/05/22 03:46:24;;;;;;;7.13;4.00;;;;;;;;;;5007859;28;20205;-74
2022/05/22 03:48:53;;;;;;;8.67;4.47;;;;;;;;;;5011249;28;21234;-73
2022/05/22 03:51:21;;;;;;;7.20;4.40;;;;;;;;;;5012165;28;20304;-73
2022/05/22 03:53:50;;;;;;;5.57;4.10;;;;;;;;;;5010372;28;20204;-73
2022/05/22 03:56:20;;;;;;;5.63;3.93;;;;;;;;;;5011595;28;20220;-73
2022/05/22 03:58:50;;;;;;;6.10;3.90;;;;;;;;;;5011354;28;20295;-73
2022/05/22 04:01:18;;;;;;;6.70;4.00;;;;;;;;;;5013198;28;20231;-73
2022/05/22 04:03:47;;;;;;;4.10;3.70;;;;;;;;;;5013996;28;20258;-72
2022/05/22 04:06:15;;;;;;;8.13;4.03;;;;;;;;;;5015650;28;20212;-72
2022/05/22 04:08:44;;;;;;;6.60;4.10;;;;;;;;;;5015131;28;20224;-72
2022/05/22 04:11:14;;;;;;;4.20;3.80;;;;;;;;;;5016402;28;20269;-73
2022/05/22 04:13:44;;;;;;;7.20;4.47;;;;;;;;;;5014548;28;20656;-73
2022/05/22 04:16:12;;;;;;;6.43;4.03;;;;;;;;;;5015026;28;20255;-73
2022/05/22 04:18:41;;;;;;;8.53;4.87;;;;;;;;;;5015344;28;20224;-73
2022/05/22 04:21:11;;;;;;;6.70;4.13;;;;;;;;;;5055377;22;20224;-72
2022/05/22 04:26:29;;;;;;;7.97;4.77;;;;;;;;;;5015363;28;20212;-72
2022/05/22 04:28:58;;;;;;;6.20;4.70;;;;;;;;;;4997488;28;20296;-72
2022/05/22 04:31:27;;;;;;;7.93;4.73;;;;;;;;;;4996493;28;20590;-72
2022/05/22 04:33:55;;;;;;;5.93;4.80;;;;;;;;;;4994030;28;20217;-72
2022/05/22 04:36:24;;;;;;;10.50;4.97;;;;;;;;;;4995788;28;20201;-72
2022/05/22 04:38:52;;;;;;;8.50;5.20;;;;;;;;;;4995772;28;20225;-72
2022/05/22 04:41:21;;;;;;;7.43;4.93;;;;;;;;;;4994972;28;20692;-72
2022/05/22 04:43:49;;;;;;;6.97;4.83;;;;;;;;;;4994695;28;20209;-73
2022/05/22 04:46:19;;;;;;;10.10;5.50;;;;;;;;;;4993455;28;20197;-73
2022/05/22 04:48:49;;;;;;;7.93;5.47;;;;;;;;;;4984509;28;20233;-73
2022/05/22 04:51:18;;;;;;;6.80;4.87;;;;;;;;;;4994837;28;20205;-72
2022/05/22 04:53:46;;;;;;;7.33;5.33;;;;;;;;;;4995527;28;20259;-73
2022/05/22 04:56:14;;;;;;;9.97;5.93;;;;;;;;;;4994691;28;20567;-72
2022/05/22 04:58:43;;;;;;;9.17;5.50;;;;;;;;;;4994498;28;20240;-73
2022/05/22 05:01:12;;;;;;;8.33;5.53;;;;;;;;;;4996912;28;21026;-73
2022/05/22 05:03:42;;;;;;;7.07;5.30;;;;;;;;;;4996849;28;20287;-72
2022/05/22 05:06:10;;;;;;;8.13;4.80;;;;;;;;;;4993747;28;20209;-73
2022/05/22 05:08:39;;;;;;;6.57;4.93;;;;;;;;;;4994350;28;20225;-72
2022/05/22 05:11:11;;;;;;;9.23;4.77;;;;;;;;;;4995706;28;20225;-72
2022/05/22 05:13:40;;;;;;;7.73;5.60;;;;;;;;;;4993243;28;20227;-72
2022/05/22 05:16:09;;;;;;;12.23;5.17;;;;;;;;;;4995862;28;20260;-73
2022/05/22 05:18:38;;;;;;;9.40;5.33;;;;;;;;;;4994514;28;20743;-72
2022/05/22 05:21:09;;;;;;;7.67;5.10;;;;;;;;;;4993746;28;20228;-72
2022/05/22 05:23:38;;;;;;;7.43;4.90;;;;;;;;;;4992623;28;20237;-72
2022/05/22 05:26:06;;;;;;;9.17;4.97;;;;;;;;;;4995561;28;20209;-72
2022/05/22 05:28:35;;;;;;;9.77;5.07;;;;;;;;;;4993862;28;20225;-72
2022/05/22 05:31:04;;;;;;;9.10;5.10;;;;;;;;;;4992016;28;20307;-72
2022/05/22 05:33:33;;;;;;;7.40;4.60;;;;;;;;;;4994273;28;20197;-72
2022/05/22 05:36:02;;;;;;;8.40;4.83;;;;;;;;;;4981730;28;20201;-72
2022/05/22 05:38:32;;;;;;;6.53;4.67;;;;;;;;;;4994185;28;20630;-72
2022/05/22 05:41:21;;;;;;;9.00;5.20;;;;;;;;;;4994181;28;20221;-72
2022/05/22 05:43:49;;;;;;;7.67;4.37;;;;;;;;;;4994402;28;20205;-72
2022/05/22 05:46:17;;;;;;;8.80;4.50;;;;;;;;;;4993790;28;20209;-72
2022/05/22 05:48:46;;;;;;;10.07;4.40;;;;;;;;;;5004829;28;20233;-72
2022/05/22 05:51:15;;;;;;;7.67;4.57;;;;;;;;;;4990923;28;20555;-73
2022/05/22 05:53:45;;;;;;;8.63;4.40;;;;;;;;;;4993596;28;20284;-73
2022/05/22 05:56:13;;;;;;;6.17;3.60;;;;;;;;;;4994245;28;20213;-73
2022/05/22 05:58:52;;;;;;;11.10;3.87;;;;;;;;;;4994101;28;20233;-72
2022/05/22 06:01:22;;;;;;;9.87;4.07;;;;;;;;;;4997244;28;20228;-72
2022/05/22 06:03:50;;;;;;;8.30;4.03;;;;;;;;;;4995903;28;20209;-72
2022/05/22 06:06:19;;;;;;;6.70;3.87;;;;;;;;;;4994873;28;20205;-72
2022/05/22 06:08:49;;;;;;;7.37;3.67;;;;;;;;;;4993986;28;20229;-72
2022/05/22 06:11:17;;;;;;;7.33;4.40;;;;;;;;;;4993635;28;20209;-73
2022/05/22 06:13:45;;;;;;;7.90;4.30;;;;;;;;;;4990866;28;20202;-72
2022/05/22 06:16:14;;;;;;;10.47;4.43;;;;;;;;;;4994290;28;20213;-72
2022/05/22 06:18:42;;;;;;;6.50;3.90;;;;;;;;;;4991172;28;20225;-72
2022/05/22 06:21:12;;;;;;;8.73;4.30;;;;;;;;;;4993250;28;20243;-72
2022/05/22 06:23:40;;;;;;;6.03;3.60;;;;;;;;;;4992378;28;20208;-72
2022/05/22 06:26:10;;;;;;;7.57;4.13;;;;;;;;;;4982923;28;20619;-72
2022/05/22 06:28:39;;;;;;;7.40;4.10;;;;;;;;;;4989759;28;20279;-72
2022/05/22 06:31:08;;;;;;;7.93;4.20;;;;;;;;;;4992058;28;20255;-72
2022/05/22 06:33:37;;;;;;;8.57;4.10;;;;;;;;;;4993261;28;20205;-72
2022/05/22 06:36:09;;;;;;;13.50;4.63;;;;;;;;;;4992696;28;20641;-72
2022/05/22 06:41:25;;;;;;;6.97;3.83;;;;;;;;;;4992423;28;20702;-72
2022/05/22 06:43:54;;;;;;;7.67;3.70;;;;;;;;;;4992525;28;20234;-73
2022/05/22 06:46:27;;;;;;;8.67;3.70;;;;;;;;;;4992975;28;20239;-72
2022/05/22 06:48:56;;;;;;;9.70;3.90;;;;;;;;;;4993016;28;20229;-72
2022/05/22 06:51:25;;;;;;;7.33;4.03;;;;;;;;;;4989065;28;20206;-72
2022/05/22 06:53:53;;;;;;;7.63;4.07;;;;;;;;;;4991771;28;20267;-72
2022/05/22 06:56:22;;;;;;;8.10;3.70;;;;;;;;;;4992229;28;20202;-73
2022/05/22 06:58:51;;;;;;;9.07;4.07;;;;;;;;;;4994198;28;20714;-73
2022/05/22 07:01:20;;;;;;;7.63;3.60;;;;;;;;;;4995820;28;20222;-73
2022/05/22 07:03:48;;;;;;;8.23;3.57;;;;;;;;;;4993926;28;20216;-73
2022/05/22 07:06:17;;;;;;;8.03;3.30;;;;;;;;;;4982926;28;20201;-73
2022/05/22 07:08:45;;;;;;;7.07;3.57;;;;;;;;;;4992609;28;20295;-73
2022/05/22 07:14:01;;;;;;;6.07;3.00;;;;;;;;;;4991309;28;20260;-73
2022/05/22 07:16:29;;;;;;;8.20;3.15;;;;;;;;;;4992562;28;20272;-73
2022/05/22 07:18:58;;;;;;;8.73;3.17;;;;;;;;;;4992516;28;20268;-73
2022/05/22 07:21:27;;;;;;;7.13;3.13;;;;;;;;;;4992181;28;20217;-71
2022/05/22 07:23:55;;;;;;;5.00;2.73;;;;;;;;;;4986425;28;20221;-73
2022/05/22 07:26:25;;;;;;;5.70;3.03;;;;;;;;;;4986883;28;20213;-73
2022/05/22 07:28:53;;;;;;;8.07;3.07;;;;;;;;;;4991601;28;20275;-73
2022/05/22 07:31:25;;;;;;;7.43;3.07;;;;;;;;;;4994088;28;20216;-73
2022/05/22 07:33:53;;;;;;;7.47;2.77;;;;;;;;;;4988532;28;20569;-72
2022/05/22 07:36:22;;;;;;;6.93;2.53;;;;;;;;;;4996114;28;20788;-72
2022/05/22 07:38:51;;;;;;;5.63;2.20;;;;;;;;;;4994631;28;20283;-72
2022/05/22 07:41:19;;;;;;;5.70;2.40;;;;;;;;;;4993789;28;20209;-72
2022/05/22 07:43:47;;;;;;;6.90;2.30;;;;;;;;;;4996218;28;20220;-72
2022/05/22 07:46:16;;;;;;;7.63;2.80;;;;;;;;;;4994625;28;20208;-72
2022/05/22 07:48:46;;;;;;;4.53;2.20;;;;;;;;;;4997016;28;20260;-73
2022/05/22 07:51:15;;;;;;;3.53;1.90;;;;;;;;;;4992145;28;20220;-74
2022/05/22 07:53:43;;;;;;;4.05;1.67;;;;;;;;;;4993056;28;20201;-73
2022/05/22 07:56:12;;;;;;;3.85;1.52;;;;;;;;;;4984870;28;20311;-73
2022/05/22 07:58:41;;;;;;;4.57;1.30;;;;;;;;;;4996597;28;20592;-74
2022/05/22 08:01:10;;;;;;;4.22;1.75;;;;;;;;;;4998234;28;20209;-73
2022/05/22 08:03:38;;;;;;;4.68;1.65;;;;;;;;;;4995791;28;20249;-73
2022/05/22 08:06:08;;;;;;;5.63;1.83;;;;;;;;;;4997054;28;20650;-74
2022/05/22 08:08:37;;;;;;;4.85;2.00;;;;;;;;;;4995095;28;20247;-73
2022/05/22 08:11:11;;;;;;;6.32;2.42;;;;;;;;;;4995048;28;20204;-73
2022/05/22 08:13:39;;;;;;;4.93;2.30;;;;;;;;;;4995050;28;20200;-73
2022/05/22 08:16:08;;;;;;;7.28;2.40;;;;;;;;;;4991645;28;20209;-72
2022/05/22 08:18:36;;;;;;;4.78;1.80;;;;;;;;;;4995642;28;20783;-72
2022/05/22 08:21:06;;;;;;;6.88;1.63;;;;;;;;;;4995211;28;20213;-74
2022/05/22 08:23:36;;;;;;;3.92;1.88;;;;;;;;;;4986047;28;20240;-74
2022/05/22 08:26:05;;;;;;;4.85;1.70;;;;;;;;;;4992173;28;20562;-73
2022/05/22 08:28:33;;;;;;;5.10;1.80;;;;;;;;;;5005551;28;20225;-73
2022/05/22 08:31:02;;;;;;;3.90;1.55;;;;;;;;;;4996474;28;20597;-73
2022/05/22 08:33:30;;;;;;;4.65;1.70;;;;;;;;;;4995053;28;20259;-73
2022/05/22 08:35:59;;;;;;;5.20;1.75;;;;;;;;;;4992678;28;20209;-72
2022/05/22 08:38:29;;;;;;;5.43;1.80;;;;;;;;;;4995941;28;20237;-73
2022/05/22 08:41:00;;;;;;;5.20;1.73;;;;;;;;;;4993983;28;20217;-74
2022/05/22 08:43:32;;;;;;;4.30;1.75;;;;;;;;;;4994838;28;20217;-72
2022/05/22 08:46:04;;;;;;;4.90;1.65;;;;;;;;;;4993629;28;20232;-73
2022/05/22 08:48:35;;;;;;;3.95;1.58;;;;;;;;;;4994300;28;20224;-73
2022/05/22 08:51:06;;;;;;;5.05;1.92;;;;;;;;;;4994456;28;20212;-73
2022/05/22 08:53:37;;;;;;;3.47;1.45;;;;;;;;;;4996190;28;20190;-74
2022/05/22 08:59:01;;;;;;;6.00;1.67;;;;;;;;;;4985748;28;20233;-73
2022/05/22 09:01:33;;;;;;;3.15;1.67;;;;;;;;;;4996909;28;20197;-74
2022/05/22 09:04:07;;;;;;;4.97;1.85;;;;;;;;;;4993800;28;20540;-74
2022/05/22 09:06:40;;;;;;;3.65;1.60;;;;;;;;;;4976465;28;20688;-73
2022/05/22 09:09:08;;;;;;;4.82;1.40;;;;;;;;;;4985401;28;20708;-73
2022/05/22 09:11:46;;;;;;;3.60;1.52;;;;;;;;;;4994973;28;20236;-74
2022/05/22 09:14:19;;;;;;;5.95;2.00;;;;;;;;;;4995362;28;20290;-74
2022/05/22 09:16:51;;;;;;;6.22;1.90;;;;;;;;;;4995712;28;20225;-74
2022/05/22 09:19:24;;;;;;;6.03;2.17;;;;;;;;;;4995340;28;20205;-74
2022/05/22 09:21:57;;;;;;;5.35;2.00;;;;;;;;;;4649083;28;9999731;-72
2022/05/22 09:24:37;;;;;;;4.90;1.77;;;;;;;;;;4994713;28;20217;-73
2022/05/22 09:27:09;;;;;;;3.20;1.85;;;;;;;;;;4995600;28;20209;-73
2022/05/22 09:29:44;;;;;;;6.40;1.77;;;;;;;;;;4995246;28;20209;-73
2022/05/22 09:32:20;;;;;;;3.72;1.60;;;;;;;;;;4995225;28;20260;-75
2022/05/22 09:34:52;;;;;;;6.13;1.77;;;;;;;;;;4994833;28;20648;-73
2022/05/22 09:37:26;;;;;;;5.13;1.85;;;;;;;;;;4995180;28;20275;-75
2022/05/22 09:40:10;;;;;;;3.97;1.88;;;;;;;;;;4994905;28;20625;-73
2022/05/22 09:42:47;;;;;;;3.92;1.70;;;;;;;;;;4995166;28;20266;-73
2022/05/22 09:45:27;;;;;;;3.28;1.80;;;;;;;;;;4994403;28;20206;-73
2022/05/22 09:48:17;;;;;;;4.90;1.70;;;;;;;;;;4995067;28;20264;-73
2022/05/22 09:50:50;;;;;;;5.00;1.75;;;;;;;;;;4994842;28;20267;-73
2022/05/22 09:53:22;;;;;;;4.75;1.50;;;;;;;;;;4994144;28;20275;-73
2022/05/22 09:55:51;;;;;;;4.95;2.00;;;;;;;;;;4994237;28;20209;-73
2022/05/22 09:58:47;;;;;;;6.18;1.95;;;;;;;;;;4995277;28;20232;-74
2022/05/22 10:01:20;;;;;;;4.68;1.75;;;;;;;;;;4995211;28;20209;-74
2022/05/22 10:03:56;;;;;;;4.95;1.80;;;;;;;;;;4994248;28;20225;-73
2022/05/22 10:06:31;;;;;;;4.95;1.70;;;;;;;;;;4992999;28;20216;-73
2022/05/22 10:09:03;;;;;;;3.70;1.50;;;;;;;;;;4994686;28;20229;-74
2022/05/22 10:11:36;;;;;;;4.43;1.45;;;;;;;;;;4994353;28;20209;-74
2022/05/22 10:14:11;;;;;;;3.85;1.50;;;;;;;;;;4994335;28;20538;-75
2022/05/22 10:16:43;;;;;;;4.60;1.85;;;;;;;;;;4993963;28;20232;-73
2022/05/22 10:19:18;;;;;;;5.00;1.80;;;;;;;;;;4994229;28;20224;-74
2022/05/22 10:21:49;;;;;;;5.68;1.80;;;;;;;;;;4993954;28;20695;-74
2022/05/22 10:24:27;;;;;;;4.47;1.90;;;;;;;;;;4993911;28;20225;-73
2022/05/22 10:27:03;;;;;;;3.75;1.65;;;;;;;;;;4993502;28;20209;-74
2022/05/22 10:29:38;;;;;;;5.38;1.92;;;;;;;;;;4994344;28;20209;-74
2022/05/22 10:32:11;;;;;;;5.53;1.90;;;;;;;;;;4991352;28;20548;-74
2022/05/22 10:34:41;;;;;;;5.40;2.28;;;;;;;;;;4993640;28;20255;-74
2022/05/22 10:37:14;;;;;;;5.00;2.30;;;;;;;;;;4993462;28;20208;-74
2022/05/22 10:39:42;;;;;;;4.15;1.75;;;;;;;;;;4992766;28;20209;-73
2022/05/22 10:45:06;;;;;;;5.43;1.70;;;;;;;;;;4993306;28;20255;-73
2022/05/22 10:47:36;;;;;;;6.57;2.13;;;;;;;;;;4994399;28;20233;-74
2022/05/22 10:50:15;;;;;;;4.50;1.88;;;;;;;;;;4993211;28;20715;-74
2022/05/22 10:52:43;;;;;;;3.83;1.80;;;;;;;;;;4994675;28;20267;-74
2022/05/22 10:55:19;;;;;;;3.40;1.80;;;;;;;;;;4993982;28;20201;-75
2022/05/22 10:57:55;;;;;;;6.60;1.88;;;;;;;;;;4994871;28;20259;-74
2022/05/22 11:00:26;;;;;;;5.53;1.90;;;;;;;;;;4983981;28;20263;-74
2022/05/22 11:02:54;;;;;;;3.38;1.63;;;;;;;;;;4993528;28;20209;-74
2022/05/22 11:05:26;;;;;;;5.05;2.00;;;;;;;;;;4992303;28;20252;-73
2022/05/22 11:07:56;;;;;;;3.95;1.70;;;;;;;;;;4993769;28;20697;-74
2022/05/22 11:10:26;;;;;;;3.75;1.63;;;;;;;;;;4993527;28;20220;-74
2022/05/22 11:13:03;;;;;;;5.07;1.90;;;;;;;;;;4992726;28;20291;-74
2022/05/22 11:15:34;;;;;;;4.78;1.88;;;;;;;;;;4983447;28;20208;-75
2022/05/22 11:18:03;;;;;;;4.53;1.98;;;;;;;;;;4993165;28;20276;-73
2022/05/22 11:20:31;;;;;;;3.78;1.60;;;;;;;;;;4989582;28;20715;-74
2022/05/22 11:23:04;;;;;;;5.18;1.60;;;;;;;;;;4992349;28;20208;-73
2022/05/22 11:25:37;;;;;;;4.25;1.70;;;;;;;;;;4993007;28;20205;-74
2022/05/22 11:28:11;;;;;;;7.15;1.75;;;;;;;;;;4990207;28;20322;-73
2022/05/22 11:30:46;;;;;;;2.80;1.80;;;;;;;;;;4984775;28;20212;-73
2022/05/22 11:33:33;;;;;;;5.07;2.00;;;;;;;;;;4992556;28;20750;-74
2022/05/22 11:36:10;;;;;;;4.00;1.65;;;;;;;;;;4990821;28;20205;-73
2022/05/22 11:38:46;;;;;;;3.22;1.48;;;;;;;;;;4993380;28;20228;-73
2022/05/22 11:41:21;;;;;;;4.10;1.80;;;;;;;;;;4990756;28;20205;-74
2022/05/22 11:43:59;;;;;;;4.22;1.80;;;;;;;;;;4988320;28;20205;-73
2022/05/22 11:46:33;;;;;;;4.68;1.80;;;;;;;;;;4975502;28;20230;-73
2022/05/22 11:49:18;;;;;;;4.68;1.70;;;;;;;;;;4973932;28;20229;-74
2022/05/22 11:51:56;;;;;;;5.25;1.70;;;;;;;;;;4991436;28;20652;-73
2022/05/22 11:54:33;;;;;;;4.03;1.50;;;;;;;;;;4992561;28;20213;-74
2022/05/22 11:57:06;;;;;;;4.38;1.65;;;;;;;;;;4983130;28;20267;-74
2022/05/22 11:59:44;;;;;;;5.63;1.85;;;;;;;;;;4992100;28;20205;-74
2022/05/22 12:02:18;;;;;;;6.68;2.20;;;;;;;;;;4985500;28;20263;-75
2022/05/22 12:05:01;;;;;;;3.85;1.67;;;;;;;;;;4989478;28;20236;-73
2022/05/22 12:07:41;;;;;;;6.75;1.80;;;;;;;;;;4991465;28;20560;-73
2022/05/22 12:10:11;;;;;;;3.80;1.63;;;;;;;;;;4991292;28;20648;-74
2022/05/22 12:12:42;;;;;;;5.32;1.80;;;;;;;;;;4991546;28;20201;-74
2022/05/22 12:15:19;;;;;;;5.05;1.95;;;;;;;;;;4991961;28;20566;-73
2022/05/22 12:17:55;;;;;;;5.05;1.60;;;;;;;;;;4992133;28;20243;-72
2022/05/22 12:20:26;;;;;;;5.80;2.05;;;;;;;;;;4991379;28;20197;-73
2022/05/22 12:23:10;;;;;;;3.55;1.60;;;;;;;;;;4993901;28;20606;-73
2022/05/22 12:25:42;;;;;;;4.95;1.67;;;;;;;;;;4995349;28;20319;-74
2022/05/22 12:28:20;;;;;;;4.22;1.70;;;;;;;;;;4995507;28;20233;-74
2022/05/22 12:30:48;;;;;;;3.28;1.60;;;;;;;;;;4996141;28;20259;-73
2022/05/22 12:33:18;;;;;;;4.80;2.08;;;;;;;;;;4995083;28;20212;-73
2022/05/22 12:35:47;;;;;;;4.43;1.45;;;;;;;;;;4996932;28;20217;-73
2022/05/22 12:38:16;;;;;;;3.72;1.58;;;;;;;;;;4994128;28;20706;-74
2022/05/22 12:40:48;;;;;;;5.15;1.90;;;;;;;;;;4990523;28;20569;-74
2022/05/22 12:43:18;;;;;;;4.80;1.73;;;;;;;;;;4996239;28;20568;-73
2022/05/22 12:45:49;;;;;;;3.50;1.67;;;;;;;;;;4994744;28;20271;-73
2022/05/22 12:48:27;;;;;;;4.95;1.75;;;;;;;;;;4977115;28;20598;-74
2022/05/22 12:51:08;;;;;;;5.07;1.50;;;;;;;;;;4989804;28;20212;-73
2022/05/22 12:53:38;;;;;;;2.75;1.58;;;;;;;;;;4995746;28;20204;-74
2022/05/22 12:56:18;;;;;;;4.10;1.65;;;;;;;;;;4994902;28;20206;-74
2022/05/22 12:58:52;;;;;;;3.85;1.48;;;;;;;;;;4997217;28;20724;-74
2022/05/22 13:01:24;;;;;;;4.47;1.75;;;;;;;;;;4989026;28;20209;-73
2022/05/22 13:03:55;;;;;;;4.10;1.50;;;;;;;;;;4996072;28;20197;-73
2022/05/22 13:06:24;;;;;;;3.90;1.80;;;;;;;;;;4994145;28;20270;-74
2022/05/22 13:08:59;;;;;;;4.35;1.50;;;;;;;;;;4995282;28;20279;-73
2022/05/22 13:11:31;;;;;;;3.42;1.63;;;;;;;;;;4995083;28;20200;-74
2022/05/22 13:14:23;;;;;;;3.92;1.52;;;;;;;;;;4988880;28;20245;-73
2022/05/22 13:16:52;;;;;;;3.08;1.73;;;;;;;;;;4994373;28;20280;-73
2022/05/22 13:19:23;;;;;;;3.47;1.70;;;;;;;;;;4993882;28;20193;-73
2022/05/22 13:21:53;;;;;;;3.60;1.67;;;;;;;;;;4981731;28;20213;-73
2022/05/22 13:24:27;;;;;;;3.15;1.55;;;;;;;;;;4993229;28;20604;-75
2022/05/22 13:26:56;;;;;;;4.07;1.52;;;;;;;;;;4991700;28;20228;-75
2022/05/22 13:29:26;;;;;;;4.22;1.65;;;;;;;;;;4992924;28;20641;-74
2022/05/22 13:31:56;;;;;;;1.90;1.33;;;;;;;;;;4994395;28;20213;-74
2022/05/22 13:34:28;;;;;;;4.97;1.70;;;;;;;;;;4994175;28;20205;-75
2022/05/22 13:36:58;;;;;;;5.28;1.80;;;;;;;;;;4994177;28;20201;-74
2022/05/22 13:39:31;;;;;;;4.63;1.50;;;;;;;;;;4993785;28;20244;-73
2022/05/22 13:42:32;;;;;;;4.80;1.63;;;;;;;;;;4994973;28;20236;-73
2022/05/22 13:45:21;;;;;;;3.75;1.42;;;;;;;;;;4989948;28;20232;-73
2022/05/22 13:48:06;;;;;;;3.15;1.67;;;;;;;;;;4993499;28;20225;-73
2022/05/22 13:53:34;;;;;;;4.25;1.60;;;;;;;;;;4992576;28;20213;-73
2022/05/22 13:56:03;;;;;;;4.10;1.67;;;;;;;;;;4994889;28;20212;-73
2022/05/22 13:58:33;;;;;;;2.90;1.35;;;;;;;;;;4994569;28;20232;-74
2022/05/22 14:01:03;;;;;;;4.57;1.70;;;;;;;;;;4993682;28;20726;-74
2022/05/22 14:03:37;;;;;;;5.05;1.85;;;;;;;;;;4992403;28;20209;-74
2022/05/22 14:06:08;;;;;;;4.60;1.50;;;;;;;;;;4993531;28;20252;-73
2022/05/22 14:08:47;;;;;;;2.08;1.30;;;;;;;;;;4994018;28;20217;-74
2022/05/22 14:11:18;;;;;;;4.47;1.52;;;;;;;;;;4988281;28;20268;-74
2022/05/22 14:13:54;;;;;;;4.00;1.40;;;;;;;;;;4985374;28;20673;-73
2022/05/22 14:16:24;;;;;;;2.92;1.48;;;;;;;;;;4991622;28;20660;-73
2022/05/22 14:18:59;;;;;;;5.28;1.70;;;;;;;;;;4994878;28;20268;-73
2022/05/22 14:21:29;;;;;;;2.80;1.30;;;;;;;;;;4991797;28;20213;-73
2022/05/22 14:26:48;;;;;;;3.33;1.40;;;;;;;;;;4993098;28;20220;-73
2022/05/22 14:29:17;;;;;;;4.75;1.60;;;;;;;;;;4994265;28;20236;-74
2022/05/22 14:31:48;;;;;;;2.90;1.20;;;;;;;;;;4992272;28;20253;-74
2022/05/22 14:34:20;;;;;;;4.45;1.30;;;;;;;;;;4993230;28;20649;-74
2022/05/22 14:36:55;;;;;;;5.15;1.50;;;;;;;;;;4996475;28;20205;-73
2022/05/22 14:39:24;;;;;;;3.22;1.30;;;;;;;;;;4991087;28;20292;-73
2022/05/22 14:41:56;;;;;;;2.40;1.40;;;;;;;;;;4992744;28;20564;-73
2022/05/22 14:44:31;;;;;;;2.05;1.30;;;;;;;;;;4987625;28;20738;-73
2022/05/22 14:47:00;;;;;;;3.95;1.50;;;;;;;;;;4989547;28;20213;-73
2022/05/22 14:49:33;;;;;;;3.38;1.30;;;;;;;;;;4992293;28;20213;-73
2022/05/22 14:52:05;;;;;;;2.22;1.30;;;;;;;;;;4993873;28;20201;-72
2022/05/22 14:54:35;;;;;;;4.20;1.33;;;;;;;;;;4992266;28;20211;-73
2022/05/22 14:57:08;;;;;;;4.15;1.60;;;;;;;;;;4994301;28;20638;-74
2022/05/22 14:59:40;;;;;;;2.72;1.50;;;;;;;;;;4993701;28;20287;-73
2022/05/22 15:02:12;;;;;;;2.88;1.30;;;;;;;;;;4993814;28;20209;-73
2022/05/22 15:04:42;;;;;;;2.92;1.48;;;;;;;;;;4986666;28;20307;-73
2022/05/22 15:07:26;;;;;;;3.80;1.40;;;;;;;;;;4990135;28;20708;-73
2022/05/22 15:09:57;;;;;;;4.05;1.50;;;;;;;;;;4980140;28;20229;-73
2022/05/22 15:12:27;;;;;;;5.00;1.90;;;;;;;;;;4990025;28;20213;-74
2022/05/22 15:14:55;;;;;;;4.03;1.60;;;;;;;;;;4989896;28;20212;-72
2022/05/22 15:17:27;;;;;;;3.22;1.42;;;;;;;;;;4983566;28;20799;-73
2022/05/22 15:20:00;;;;;;;4.70;1.65;;;;;;;;;;4990653;28;20212;-73
2022/05/22 15:25:40;;;;;;;3.13;1.50;;;;;;;;;;4982161;28;20201;-72
2022/05/22 15:28:15;;;;;;;4.10;1.60;;;;;;;;;;4987375;28;20229;-73
2022/05/22 15:30:46;;;;;;;2.88;1.50;;;;;;;;;;4990661;28;20562;-73
2022/05/22 15:33:26;;;;;;;3.10;1.55;;;;;;;;;;4988250;28;20197;-73
2022/05/22 15:36:07;;;;;;;4.78;1.80;;;;;;;;;;4984384;28;20726;-72
2022/05/22 15:38:37;;;;;;;3.47;1.45;;;;;;;;;;4982898;28;20230;-73